Tanner, West Virginia
Current Conditions -  °F | °C
As of 12:53 PM on Saturday 25 Oct 2014 (Local Time) from KPKB Reporting Station
Broken Clouds Broken Clouds  
Wind Chill: 62°   Ceiling: 6500
Heat Index: 62°   Visibility: 10mi
Dew Point: 48°   Wind: 7mph
Humidity: 60%   Direction: 240°WSW
Pressure: 29.99"   Gusts: NA
Location:  38.9756°N, 80.9915°W
Report Text: KPKB 251653Z 24006KT 10SM BKN065 17/09 A2999 RMK AO2 SLP154 T01670089
Loading
Personal Weather Stations






























Interactive Weather Map
Tropical Storm Tracking
New forecast layout! Learn more

10-Day Weather Forecast

Advertisements
Track Severe Weather on mobile